UPSVAC Airport Information Service

Warszawa-Okecie

ICAO: EPWA Country: Poland, EU
Latitude: 52.1657 Longitude: 20.9671
Latest Arrival : UPSJUMP (EDDK-EPWA) Latest Departure : UPS1362 (EPWA-EDDK)


WX CaptureLIVE
Data provided by noaa.gov | Fetched at 13:47:56

METAR : EPWA 141330Z 34009KT 3500 -SNRA BR BKN006 01/01 Q1020 RESNRA NOSIG

TAF : EPWA 141130Z 1412/1512 34012KT 8000 -RASN BKN016 BECMG 1412/1415 -RA BKN012 TEMPO 1412/1512 4000 RA BR BKN006 PROB40 TEMPO 1412/1415 2000 RASN BR PROB40 TEMPO 1415/1509 2000 RASN BR BKN003


Runway Data for EPWA
Data provided by openaviationdata.com

Runway ID Mag Var Hdg Length Elevation Surface ILS Freq ILS Id ILS Slope
11 5 109° 9190 ft 361 ft Asphalt 109.9 WAS 3
15 5 146° 12088 ft 361 ft Asphalt -- -- --
29 5 289° 9190 ft 361 ft Asphalt -- -- --
33 5 326° 12088 ft 361 ft Asphalt 110.3 WA 3

Warszawa-Okecie, Poland, EU
Use only for reference purposes



Not for navigational purposes.